Aérodrome :
LOGIN :

S'inscrire | Disclaimer

   EN    FR    IT 

 










Légende :    VFR   VFR Marginal   IFR   IFR Intensif   IFR Très Intensif
Visi : 
Plafond : 
>= 8 km
>= 3000ft
5 à 8 km
1000 à 3000 ft
1500m à 5 km
500 à 1000 ft
800 à 1500m
200 à 500 ft
< 800m
< 200 ft
Symboles :   Orages  Brouillard  Fortes neiges  Fortes précipitations  Vent > 20 kt
SIGMETs :   Divers  Orages  Givrage  Turbulence  Onde Orograph.  Cendres Volcan.






- Altitude de l'aérodrome : 788 ft
- Code IATA : DCM


LFCK - Castres-Mazamet

DERNIER METAR :
  • 120100Z AUTO 30009KT 9999 FEW027 BKN034 OVC041 05/04 Q1016

METARs EXPIRÉS :
  • 120030Z AUTO 30013KT 9999 BKN029/// BKN037/// BKN048/// ///TCU 06/04 Q1017
  • 120000Z AUTO 32017KT 9999 -RA BKN024/// OVC032/// ///TCU 06/04 Q1017
  • 112330Z AUTO 30019KT 9999 -RA FEW013/// BKN025/// OVC030/// ///CB 05/04 Q1017
  • 112300Z AUTO 27022KT 9999 FEW018/// SCT023/// BKN031/// ///TCU 07/05 Q1016
  • 112230Z AUTO 27021KT 9999 BKN018/// BKN026/// BKN033/// ///TCU 07/05 Q1016

TAF TAF LFCK
Valide du 11 à 18h jusqu'au 12 à 03h UTC


111700Z 1118/1203 30006KT 9999 SCT008 BKN012
TEMPO 1118/1124 30018G30KT 2000 SHRA BKN004 SCT020CB
PROB40
TEMPO 1200/1203 3000 SHRA BKN003 SCT015TCU



MET'MAP, la Météo Aéronautique d'un coup d'oeil ! - Copyright ORBIFLY Décembre 2007 - Disclaimer

ORBIFLY MET'MAP TEAM :

Programmation & Développement : Alexandra Zaïnal
Sur une idée originale de : Baudouin d'Aumeries
Assistance à la programmation : Marc-Olivier Méhu
Soutien technique & logistique : Manuel Goepfert

Contact : metmap@orbifly.com




SOURCES & CREDITS :

   NOAA